Schofield Barracks, HI

10:38 PM HST on April 01, 2015 (GMT -1000)
GTA - South Range | | Change Station
CLOSE
Current Station
Personal Weather Station
Location: Wahiaw%u0101, HI
Elevation: 881 ft
Nearby Weather Stations

Elev 881 ft 21.48 °N, 158.06 °W | Updated 12 minutes ago

Scattered Clouds
Scattered Clouds
69.9 °F
Feels Like 69.9 °F
N
3.0
Wind Variable Wind from SW
Gusts 5.0 mph

Today
High -- | Low -- °F
--% Chance of Precip.
Yesterday
High -- | Low -- °F
Precip. -- in
6:25 AM 6:47 PM
Waxing Gibbous, 96% visible
Pressure 30.00 in
Visibility 10.0 miles
Clouds Scattered Clouds 3000 ft
Dew Point 66 °F
Humidity 86%
Rainfall 0.02 in
Snow Depth Not available.
UV 0 out of 12
Pollen Not available.
Air Quality Not available.
Flu Activity Not available.
METAR PHHI 020758Z VRB06KT 10SM SCT030 22/16 A3000 RMK AO2A SLPNO $

More Conditions Fewer Conditions

Pressure 30.00 in
Visibility 10.0 miles
Clouds Scattered Clouds 3000 ft
Dew Point 66 °F
Humidity 86%
Rainfall 0.02 in
Snow Depth Not available.
UV 0 out of 12
Pollen Not available.
Air Quality Not available.
Flu Activity Not available.
METAR PHHI 020758Z VRB06KT 10SM SCT030 22/16 A3000 RMK AO2A SLPNO $

More Conditions Fewer Conditions

10-Day Weather Forecast

Almanac

Astronomy

Apr. 01, 2015 Rise Set
Actual Time
Civil Twilight
Nautical Twilight
Astronomical Twilight
Moon
Length of Visible Light
Length of Day
Tomorrow will be .
, % of the Moon is Illuminated

Today's Extremes

State Highs State Lows

Community

WunderPhotos

Upload Photos

1,810,207 photos uploaded!

WunderBlogs® & News

Nearby

Air Quality

  Air Quality AQ Index Pollutant
Not available.

Snow Depth

Station Depth Elevation

Earthquake Activity

City Distance Mag. Time & Date
Minimum magnitude displayed is 2.5.

Coastal Water Temperatures

Place Temperature

Stations

Nearby Weather Stations

Station Location Temp. Windchill Dew Point Humidity Wind Precip. Elev Updated Type